リヤド の空港の天気 - METARとTAF

キング・ハーリド国際空港(リヤド) ( OERK / RUH ) - サウジアラビア リヤド
飛行場実況気象(Metar)
観測時間10/16 09:00 AST (10/16 06:00 UTC)
風向・風速西南西 2m/s
視程10km以上
天気現象
なし
気温29℃
湿度31%
気圧1020hPa
METAROERK 160600Z 24003KT CAVOK 29/10 Q1020 NOSIG
過去の天気等 Google飛行場航空写真 Wunderground天気予報

過去48時間のMETAR

飛行場予報(TAF)
発表時間: 10/16 08:00 AST (10/16 05:00 UTC)
予報対象時間: 16日9時 AST ~ 17日15時 AST
風向・風速南南東 6m/s
視程7000m
なし
16日15時 AST ~ 16日23時 AST に一時的に
少しの雲 雲底高度 1220m
全天の4割程度の雲 雲底高度 3050m
16日21時 AST ~ 16日23時 AST に徐々に
風向・風速不定 2m/s
TAF OERK 160500Z 1606/1712 15012KT 7000 NSC
TEMPO 1612/1620 FEW040 SCT100
BECMG 1618/1620 VRB03KT